Latest Weather Observations for Ballina

IDN60801

Issued at 9:02 pm EDT Tuesday 21 February 2017 (issued every 30 minutes, with the page automatically refreshed every 10 minutes)

About weather observations | Map of weather stations | Latest weather observations for NSW | Other Formats
Station Details ID: 058198 Name: BALLINA AIRPORT AWS Lat: -28.84 Lon: 153.56 Height: 1.3 m
Data from the previous 72 hours. | See also: Recent months at Ballina
Date/Time
EDT
Temp
°C
App
Temp
°C
Dew
Point
°C
Rel
Hum
%
Delta-T
°C
Wind Press
QNH
hPa
Press
MSL
hPa
Rain since
9am
mm
Dir  Spd
km/h
Gust
km/h
Spd
kts
Gust
kts
21/09:00pm 24.5 23.8 16.5 61 4.9 ESE 15 22 8 12 1020.0 1020.0 0.0
21/08:30pm 24.5 23.9 16.7 61 4.8 ESE 15 22 8 12 1019.6 1019.6 0.0
21/08:00pm 24.7 23.8 15.9 58 5.3 ESE 15 19 8 10 1019.5 1019.5 0.0
21/07:30pm 24.8 23.5 15.7 57 5.5 ESE 17 22 9 12 1019.2 1019.2 0.0
21/07:00pm 25.1 24.4 16.5 59 5.3 ESE 15 22 8 12 1018.8 1018.8 0.0
21/06:30pm 25.7 24.4 16.8 58 5.5 ESE 19 26 10 14 1018.5 1018.5 0.0
21/06:00pm 26.2 25.7 17.0 57 5.7 SE 15 22 8 12 1018.2 1018.2 0.0
21/05:30pm 26.5 25.2 17.3 57 5.8 SE 20 24 11 13 1017.9 1017.9 0.0
21/05:00pm 26.7 25.8 16.9 55 6.1 SE 17 24 9 13 1017.9 1017.9 0.0
21/04:30pm 26.8 25.3 16.4 53 6.4 SE 19 28 10 15 1017.8 1017.8 0.0
21/04:00pm 26.4 26.6 19.3 65 4.6 SSE 17 28 9 15 1017.8 1017.8 0.0
21/03:30pm 25.9 26.7 20.7 73 3.4 SSW 17 24 9 13 1017.7 1017.7 0.0
21/03:00pm 25.6 26.3 20.4 73 3.4 S 17 24 9 13 1017.7 1017.7 0.0
21/02:30pm 25.0 25.6 20.3 75 3.1 S 17 24 9 13 1017.9 1017.9 0.0
21/02:00pm 25.4 26.3 20.0 72 3.5 S 15 22 8 12 1018.0 1018.0 0.0
21/01:30pm 26.1 27.5 20.4 71 3.7 SSE 13 19 7 10 1018.2 1018.2 0.0
21/01:00pm 25.5 27.7 20.5 74 3.3 SSW 9 15 5 8 1018.4 1018.4 0.0
21/12:30pm 25.1 26.8 20.1 74 3.2 SSW 11 17 6 9 1018.6 1018.6 0.0
21/12:00pm 24.9 27.1 20.4 76 2.9 SW 9 15 5 8 1018.7 1018.7 0.0
21/11:30am 24.5 26.7 20.4 78 2.7 SW 9 15 5 8 1019.0 1019.0 0.0
21/11:00am 23.6 25.3 20.1 81 2.3 W 11 15 6 8 1019.2 1019.2 0.0
21/10:30am 23.0 24.5 20.5 86 1.6 WSW 13 17 7 9 1019.3 1019.3 0.0
21/10:00am 22.6 24.3 20.9 90 1.1 WSW 13 17 7 9 1019.0 1019.0 0.0
21/09:36am 22.3 24.2 20.6 90 1.1 SW 11 15 6 8 1018.7 1018.7 0.0
21/09:30am 22.0 23.8 20.3 90 1.1 SW 11 17 6 9 1018.7 1018.7 0.0
21/09:09am 22.0 23.9 20.6 92 0.9 SW 11 17 6 9 1018.6 1018.6 0.0
21/09:00am 22.3 24.5 21.1 93 0.8 SW 11 17 6 9 1018.5 1018.5 1.4
21/08:30am 22.3 26.8 21.5 95 0.5 CALM 0 0 0 0 1017.9 1017.9 1.4
21/08:00am 21.9 25.1 21.2 96 0.5 WNW 6 9 3 5 1017.5 1017.5 1.4
21/07:30am 21.6 23.2 20.8 95 0.5 WNW 13 17 7 9 1017.0 1017.0 1.4
21/07:00am 21.5 23.7 20.5 94 0.6 WSW 9 15 5 8 1016.7 1016.7 1.4
21/06:30am 21.8 23.3 20.6 93 0.8 W 13 15 7 8 1016.1 1016.1 1.4
21/06:00am 21.9 25.5 20.5 92 0.9 WSW 2 7 1 4 1015.7 1015.7 1.4
21/05:30am 21.9 24.6 20.7 93 0.8 SW 7 9 4 5 1015.3 1015.3 1.4
21/05:00am 22.1 26.2 20.7 92 0.9 CALM 0 0 0 0 1015.1 1015.1 1.4
21/04:30am 22.3 24.7 20.8 91 1.0 NNW 9 15 5 8 1014.7 1014.7 1.4
21/04:00am 22.3 24.7 20.9 92 0.9 NNW 9 15 5 8 1014.7 1014.7 1.2
21/03:30am 22.5 25.7 20.4 88 1.4 NNW 4 9 2 5 1014.8 1014.8 0.0
21/03:00am 22.6 25.4 20.9 90 1.1 NNW 7 9 4 5 1014.8 1014.8 0.0
21/02:30am 22.0 25.2 20.5 91 1.0 WNW 4 9 2 5 1015.0 1015.0 0.0
21/02:00am 21.7 25.2 20.3 92 0.9 NNW 2 7 1 4 1015.2 1015.2 0.0
21/01:30am 21.5 24.9 19.4 88 1.3 CALM 0 2 0 1 1015.3 1015.3 0.0
21/01:00am 22.5 26.2 19.9 85 1.7 CALM 0 0 0 0 1015.5 1015.5 0.0
21/12:30am 23.3 26.3 20.1 82 2.1 E 4 7 2 4 1015.6 1015.6 0.0
21/12:00am 23.5 26.9 20.2 82 2.1 NE 2 6 1 3 1015.7 1015.7 0.0
 
Date/Time
EDT
Temp
°C
App
Temp
°C
Dew
Point
°C
Rel
Hum
%
Delta-T
°C
Wind Press
QNH
hPa
Press
MSL
hPa
Rain since
9am
mm
Dir  Spd
km/h
Gust
km/h
Spd
kts
Gust
kts
20/11:30pm 24.0 26.6 20.5 81 2.3 E 7 9 4 5 1015.7 1015.7 0.0
20/11:00pm 23.7 26.8 20.2 81 2.3 ENE 4 9 2 5 1015.7 1015.7 0.0
20/10:30pm 23.2 26.7 19.6 80 2.3 CALM 0 0 0 0 1015.5 1015.5 0.0
20/10:00pm 23.8 26.0 19.5 77 2.8 E 7 11 4 6 1015.2 1015.2 0.0
20/09:30pm 23.7 25.3 19.2 76 2.9 E 9 13 5 7 1014.8 1014.8 0.0
20/09:00pm 24.1 25.4 19.2 74 3.1 E 11 15 6 8 1014.3 1014.3 0.0
20/08:30pm 24.4 25.3 19.2 73 3.3 E 13 20 7 11 1013.7 1013.7 0.0
20/08:00pm 24.6 25.0 19.0 71 3.6 E 15 20 8 11 1013.3 1013.3 0.0
20/07:30pm 24.9 25.0 19.1 70 3.7 ESE 17 24 9 13 1012.7 1012.7 0.0
20/07:00pm 25.7 24.6 18.6 65 4.5 ESE 22 32 12 17 1012.2 1012.2 0.0
20/06:30pm 26.5 25.4 18.6 62 5.0 ESE 22 30 12 16 1011.8 1011.8 0.0
20/06:00pm 26.9 25.4 18.5 60 5.4 SE 24 33 13 18 1011.4 1011.4 0.0
20/05:30pm 26.8 25.9 17.8 57 5.7 SE 19 28 10 15 1011.0 1011.0 0.0
20/05:00pm 27.5 26.2 18.2 57 5.9 SE 22 30 12 16 1011.0 1011.0 0.0
20/04:30pm 27.9 26.2 18.0 55 6.3 SSE 24 33 13 18 1010.7 1010.7 0.0
20/04:00pm 27.9 27.3 18.9 58 5.8 SSE 20 30 11 16 1010.6 1010.6 0.0
20/03:30pm 27.7 26.1 17.5 53 6.4 SSE 22 30 12 16 1010.6 1010.6 0.0
20/03:00pm 28.1 26.4 17.3 52 6.8 SSE 22 32 12 17 1010.7 1010.7 0.0
20/02:30pm 28.2 26.7 16.8 50 7.1 SSE 20 28 11 15 1010.9 1010.9 0.0
20/02:00pm 27.8 26.0 17.0 51 6.8 SSE 22 30 12 16 1011.2 1011.2 0.0
20/01:30pm 28.3 26.7 17.5 52 6.8 S 22 30 12 16 1011.4 1011.4 0.0
20/01:00pm 28.3 24.6 13.8 41 8.6 S 26 37 14 20 1011.7 1011.7 0.0
20/12:30pm 27.9 23.3 12.3 38 9.1 S 28 35 15 19 1012.0 1012.0 0.0
20/12:00pm 27.6 22.8 11.6 37 9.2 S 28 43 15 23 1012.1 1012.1 0.0
20/11:30am 28.1 23.6 12.5 38 9.1 S 28 39 15 21 1012.1 1012.1 0.0
20/11:00am 28.1 24.3 12.5 38 9.1 SSW 24 37 13 20 1011.9 1011.9 0.0
20/10:30am 27.5 26.7 17.1 53 6.5 SSW 17 24 9 13 1012.1 1012.1 0.0
20/10:00am 26.6 26.2 17.1 56 5.9 SW 15 24 8 13 1012.2 1012.2 0.0
20/09:30am 25.0 24.6 16.2 58 5.4 SW 13 19 7 10 1011.9 1011.9 0.0
20/09:00am 24.2 24.6 19.1 73 3.3 W 15 20 8 11 1011.5 1011.5 1.8
20/08:30am 22.1 25.5 19.3 84 1.8 CALM 0 0 0 0 1011.6 1011.6 1.8
20/08:00am 21.4 24.5 19.5 89 1.2 NW 2 6 1 3 1011.1 1011.1 1.8
20/07:30am 20.8 24.0 18.9 89 1.2 CALM 0 0 0 0 1010.8 1010.8 1.8
20/07:00am 20.5 21.9 18.6 89 1.2 S 9 11 5 6 1010.3 1010.3 1.8
20/06:30am 20.6 21.5 18.5 88 1.3 WNW 11 15 6 8 1009.7 1009.7 1.8
20/06:00am 20.7 23.1 18.8 89 1.2 NNW 4 7 2 4 1009.0 1009.0 1.8
20/05:30am 20.7 23.8 18.6 88 1.3 CALM 0 0 0 0 1008.5 1008.5 1.8
20/05:00am 21.1 22.4 18.5 85 1.6 SW 9 11 5 6 1008.0 1008.0 1.8
20/04:30am 20.8 22.6 18.4 86 1.5 W 6 13 3 7 1007.8 1007.8 1.8
20/04:00am 20.7 21.8 18.8 89 1.2 WSW 11 13 6 7 1007.0 1007.0 1.8
20/03:30am 20.7 23.3 19.2 91 0.9 WNW 4 9 2 5 1007.2 1007.2 1.8
20/03:00am 20.6 21.9 19.3 92 0.8 NW 11 17 6 9 1007.4 1007.4 1.8
20/02:30am 20.9 23.1 19.2 90 1.1 W 6 13 3 7 1007.2 1007.2 1.8
20/02:00am 20.8 21.7 19.3 91 0.9 W 13 20 7 11 1008.5 1008.5 1.8
20/01:30am 20.8 21.6 19.1 90 1.1 WNW 13 20 7 11 1008.9 1008.9 1.8
20/01:00am 21.4 20.8 18.8 85 1.6 W 20 30 11 16 1009.4 1009.4 1.4
20/12:30am 21.7 19.6 18.9 84 1.8 W 28 37 15 20 1009.8 1009.8 1.4
20/12:00am 22.6 23.4 19.8 84 1.8 W 15 22 8 12 1010.1 1010.1 1.4
 
Date/Time
EDT
Temp
°C
App
Temp
°C
Dew
Point
°C
Rel
Hum
%
Delta-T
°C
Wind Press
QNH
hPa
Press
MSL
hPa
Rain since
9am
mm
Dir  Spd
km/h
Gust
km/h
Spd
kts
Gust
kts
19/11:30pm 22.5 25.6 21.0 91 1.0 W 6 15 3 8 1009.8 1009.8 1.4
19/11:00pm 22.5 26.2 20.8 90 1.1 W 2 7 1 4 1009.6 1009.6 1.4
19/10:30pm 22.5 25.9 21.0 91 1.0 WNW 4 6 2 3 1009.6 1009.6 1.4
19/10:16pm 22.6 25.0 20.9 90 1.1 WNW 9 11 5 6 1009.4 1009.4 1.4
19/10:06pm 22.8 26.7 21.1 90 1.1 W 2 7 1 4 1009.3 1009.3 1.2
19/10:00pm 22.9 27.0 20.8 88 1.4 CALM 0 6 0 3 1009.1 1009.1 1.2
19/09:42pm 22.8 25.5 20.7 88 1.4 WSW 7 11 4 6 1008.8 1008.8 1.2
19/09:30pm 23.2 26.5 20.7 86 1.6 N 4 7 2 4 1008.5 1008.5 1.0
19/09:20pm 23.0 26.9 20.3 85 1.7 CALM 0 6 0 3 1008.1 1008.1 1.0
19/09:00pm 23.0 25.6 20.1 84 1.9 NNE 6 9 3 5 1007.8 1007.8 1.0
19/08:30pm 23.0 26.6 20.5 86 1.6 NNW 2 9 1 5 1008.0 1008.0 1.0
19/08:00pm 23.2 25.6 20.9 87 1.5 ENE 9 13 5 7 1007.5 1007.5 1.0
19/07:30pm 22.9 26.1 20.4 86 1.6 WSW 4 7 2 4 1007.0 1007.0 1.0
19/07:00pm 23.7 26.9 20.6 83 2.0 W 4 7 2 4 1006.5 1006.5 1.0
19/06:43pm 24.2 26.4 19.5 75 3.0 N 7 9 4 5 1006.4 1006.4 1.0
19/06:30pm 24.6 25.4 19.0 71 3.6 WNW 13 15 7 8 1006.2 1006.2 0.8
19/06:26pm 25.5 26.1 18.7 66 4.3 WNW 13 13 7 7 1006.1 1006.1 0.8
19/06:00pm 27.4 28.2 17.3 54 6.4 NNW 9 13 5 7 1006.0 1006.0 0.0
19/05:30pm 28.3 28.3 18.1 54 6.5 NNW 15 22 8 12 1006.2 1006.2 0.0
19/05:00pm 28.3 29.4 22.3 70 4.1 N 20 28 11 15 1005.7 1005.7 0.0
19/04:30pm 28.8 30.6 22.5 68 4.3 NE 17 22 9 12 1005.6 1005.6 0.0
19/04:00pm 29.2 30.4 22.2 66 4.7 NE 19 24 10 13 1005.6 1005.6 0.0
19/03:30pm 29.7 30.3 21.4 61 5.6 NE 20 24 11 13 1005.8 1005.8 0.0
19/03:00pm 31.8 32.7 16.5 39 9.6 W 7 11 4 6 1006.1 1006.1 0.0
19/02:30pm 31.5 30.9 18.5 46 8.4 WSW 19 22 10 12 1006.4 1006.4 0.0
19/02:00pm 32.0 32.8 18.2 43 8.9 W 11 22 6 12 1006.6 1006.6 0.0
19/01:37pm 31.8 33.2 18.7 45 8.5 NW 9 15 5 8 1006.7 1006.7 0.0
19/01:30pm 31.7 32.5 19.0 47 8.3 NW 13 19 7 10 1006.6 1006.6 0.0
19/01:00pm 31.1 31.0 18.8 48 8.0 N 17 26 9 14 1006.5 1006.5 0.0
19/12:48pm 30.9 31.0 19.9 52 7.2 N 19 26 10 14 1006.6 1006.6 0.0
19/12:40pm 30.7 30.9 19.4 51 7.4 N 17 22 9 12 1006.6 1006.6 0.0
19/12:30pm 30.3 30.3 19.0 50 7.3 N 17 22 9 12 1006.7 1006.7 0.0
19/12:27pm 30.4 30.5 19.1 50 7.3 N 17 22 9 12 1006.7 1006.7 0.0
19/12:00pm 30.0 30.2 19.4 53 6.9 N 17 26 9 14 1006.6 1006.6 0.0
19/11:30am 29.4 29.1 18.2 51 7.2 N 17 24 9 13 1006.8 1006.8 0.0
19/11:00am 28.9 28.3 18.4 53 6.7 NNE 19 28 10 15 1006.9 1006.9 0.0
19/10:30am 29.5 29.8 19.5 55 6.5 NE 17 26 9 14 1007.1 1007.1 0.0
19/10:00am 27.5 28.9 19.6 62 5.1 NNE 11 19 6 10 1007.4 1007.4 0.0
19/09:54am 27.3 29.0 19.4 62 5.1 NNE 9 15 5 8 1007.4 1007.4 0.0
19/09:42am 26.9 28.7 20.3 67 4.3 N 11 17 6 9 1007.7 1007.7 0.0
19/09:30am 26.7 27.7 20.3 68 4.2 N 15 22 8 12 1007.9 1007.9 0.0
19/09:00am 25.7 26.6 20.9 75 3.2 NNE 17 24 9 13 1007.6 1007.6 0.0
19/08:30am 25.1 26.9 21.2 79 2.6 N 13 20 7 11 1007.7 1007.7 0.0
19/08:19am 24.9 26.2 20.8 78 2.7 NNE 15 20 8 11 1007.5 1007.5 0.0
19/08:02am 24.5 25.7 20.6 79 2.5 N 15 20 8 11 1007.6 1007.6 0.0
19/08:00am 24.5 25.7 20.6 79 2.6 N 15 20 8 11 1007.6 1007.6 0.0
19/07:30am 24.0 25.7 20.1 79 2.5 N 11 17 6 9 1007.2 1007.2 0.0
19/07:00am 23.9 25.7 19.6 77 2.8 NNE 9 13 5 7 1007.1 1007.1 0.0
19/06:30am 24.0 24.8 18.2 70 3.6 NNE 11 15 6 8 1007.2 1007.2 0.0
19/06:12am 23.9 25.4 18.1 70 3.6 NE 7 13 4 7 1007.0 1007.0 0.0
19/06:00am 24.3 25.8 18.0 68 4.0 N 7 15 4 8 1007.2 1007.2 0.0
19/05:50am 24.3 25.5 18.2 68 3.8 NNE 9 19 5 10 1007.3 1007.3 0.0
19/05:45am 24.1 25.6 18.1 69 3.8 NNE 7 9 4 5 1007.3 1007.3 0.0
19/05:30am 24.3 25.9 18.2 68 3.8 N 7 13 4 7 1007.2 1007.2 0.0
19/05:00am 24.8 25.4 18.5 68 4.0 NNW 13 20 7 11 1007.4 1007.4 0.0
19/04:53am 24.8 25.2 19.0 70 3.7 NNW 15 24 8 13 1007.5 1007.5 0.0
19/04:32am 25.0 25.4 19.1 70 3.8 NW 15 22 8 12 1007.7 1007.7 0.0
19/04:30am 25.1 25.2 19.2 70 3.8 NW 17 30 9 16 1007.7 1007.7 0.0
19/04:00am 25.5 25.2 19.6 70 3.8 NNW 20 30 11 16 1007.7 1007.7 0.0
19/03:30am 25.4 25.1 19.5 70 3.8 N 20 28 11 15 1007.9 1007.9 0.0
19/03:00am 25.7 25.1 19.8 70 3.8 NNW 22 30 12 16 1007.9 1007.9 0.0
19/02:30am 25.2 25.5 20.7 76 2.9 N 20 33 11 18 1007.7 1007.7 0.0
19/02:15am 25.2 26.3 20.5 75 3.1 N 15 28 8 15 1007.8 1007.8 0.0
19/02:00am 24.9 26.0 19.7 73 3.4 NNE 13 19 7 10 1008.1 1008.1 0.0
19/01:30am 25.2 25.5 19.6 71 3.6 N 17 22 9 12 1008.4 1008.4 0.0
19/01:00am 25.3 26.4 19.7 71 3.6 NNW 13 17 7 9 1008.8 1008.8 0.0
19/12:50am 25.3 25.8 20.1 73 3.4 N 17 22 9 12 1008.8 1008.8 0.0
19/12:39am 25.3 25.8 20.1 73 3.4 NNE 17 22 9 12 1008.6 1008.6 0.0
19/12:30am 25.4 25.9 20.0 72 3.5 N 17 26 9 14 1009.1 1009.1 0.0
19/12:00am 25.6 26.8 20.6 74 3.3 NW 15 26 8 14 1009.7 1009.7 0.0
 
Date/Time
EDT
Temp
°C
App
Temp
°C
Dew
Point
°C
Rel
Hum
%
Delta-T
°C
Wind Press
QNH
hPa
Press
MSL
hPa
Rain since
9am
mm
Dir  Spd
km/h
Gust
km/h
Spd
kts
Gust
kts
18/11:59pm 25.6 26.8 20.6 74 3.3 NW 15 26 8 14 1009.7 1009.7 0.0
18/11:56pm 25.6 26.4 20.6 74 3.3 NW 17 32 9 17 1009.2 1009.2 0.0
18/11:47pm 25.6 26.1 21.1 76 3.0 NW 20 33 11 18 1009.7 1009.7 0.0
18/11:30pm 25.5 24.9 21.2 77 2.8 N 26 39 14 21 1007.7 1007.7 0.0
18/11:25pm 25.4 24.6 20.9 76 3.0 N 26 37 14 20 1007.7 1007.7 0.0
18/11:23pm 25.5 24.8 21.0 76 3.0 N 26 37 14 20 1007.6 1007.6 0.0
18/11:12pm 25.5 24.8 21.0 76 3.0 N 26 39 14 21 1007.6 1007.6 0.0
18/11:11pm 25.5 24.8 21.0 76 3.0 N 26 39 14 21 1007.6 1007.6 0.0
18/11:00pm 25.5 25.1 21.0 76 3.0 N 24 39 13 21 1007.5 1007.5 0.0
18/10:57pm 25.5 24.4 21.0 76 3.0 N 28 50 15 27 1007.6 1007.6 0.0
18/10:38pm 25.6 23.6 21.1 76 3.0 N 33 52 18 28 1007.2 1007.2 0.0
18/10:30pm 25.6 23.8 21.1 76 3.0 N 32 44 17 24 1007.3 1007.3 0.0
18/10:17pm 25.5 24.1 21.2 77 2.8 NNE 30 52 16 28 1007.1 1007.1 0.0
18/10:00pm 25.4 24.3 21.1 77 2.8 NNE 28 41 15 22 1007.2 1007.2 0.0
18/09:30pm 25.4 23.4 21.1 77 2.8 NNE 33 46 18 25 1006.9 1006.9 0.0

Other Formats:

Comma delimited format used in spreadsheet applications
http://www.bom.gov.au/fwo/IDN60801/IDN60801.94596.axf

JavaScript Object Notation format (JSON) in row-major order
http://www.bom.gov.au/fwo/IDN60801/IDN60801.94596.json